Clear Sky Current Weather (METAR) For Amsterdam Schiphol Airport

All times on the weather descriptions are local

Observed at 04:55 - (28 mins ago)

Clear Sky

12°C

Clear Sky
Clouds:
Wind: 170° at 09 knots
Visibility: Greater than 10km
QNH: 1017
Dew Point: 10°C
Runways with a headwind: Runway 24, Runway 09, Runways 18L/C/R

Sunrise Today: 07:35
Sunset Today: 17:13

Forecast Weather (TAF) For Amsterdam Schiphol Airport

Issued at 01:00 - (29 days ago)


Runways with a headwind: Unable to determine, wind is clam

Forecast valid until 01:00 on Sunday

METAR/TAF RAW METAR / TAF

EHAM 010355Z 17009KT CAVOK 12/10 Q1017 NOSIG

Weather Widget

Put weather from any of our airports on your website with our weather widget.

Find Another Search

Airport Search


Please Wait Please Wait - Loading
Close
Close

Login

Username:

Password:

Remember Me:

Remember me on this computer

Forgotten your password? Get a reset password sent to your registered e-mail address

Close

User Private Message

Subject:

Message: